createdAt,value
2018-01-18T00:00:06.354Z,71.37
2018-01-18T00:00:46.715Z,71.56
2018-01-18T00:01:27.157Z,72.03
2018-01-18T00:02:07.610Z,71.37
2018-01-18T00:02:48.028Z,72.13
2018-01-18T00:03:28.437Z,71.66
2018-01-18T00:04:09.030Z,70.99
2018-01-18T00:04:49.446Z,70.79
2018-01-18T00:05:29.880Z,70.7
2018-01-18T00:06:10.307Z,71.75
2018-01-18T00:06:50.773Z,71.27
2018-01-18T00:07:31.157Z,70.93
2018-01-18T00:08:12.445Z,70.61
2018-01-18T00:08:52.983Z,70.54
2018-01-18T00:09:33.332Z,71.02
2018-01-18T00:10:13.765Z,69.79
2018-01-18T00:10:54.126Z,70.64
2018-01-18T00:11:34.532Z,70.13
2018-01-18T00:12:14.909Z,71.08
2018-01-18T00:12:55.338Z,70.99
2018-01-18T00:13:35.722Z,70.61
2018-01-18T00:14:16.153Z,70.51
2018-01-18T00:14:56.570Z,70.61
2018-01-18T00:15:36.919Z,70.79
2018-01-18T00:16:17.324Z,70.79
2018-01-18T00:16:57.660Z,71.59
2018-01-18T00:17:39.125Z,71.5
2018-01-18T00:18:19.482Z,70.45
2018-01-18T00:18:59.899Z,70.04
2018-01-18T00:19:40.307Z,70.42
2018-01-18T00:20:20.707Z,70.54
2018-01-18T00:21:01.089Z,70.54
2018-01-18T00:21:41.409Z,70.64
2018-01-18T00:22:21.831Z,70.83
2018-01-18T00:23:03.067Z,71.41
2018-01-18T00:23:43.487Z,70.64
2018-01-18T00:24:23.832Z,70.07
2018-01-18T00:25:04.274Z,70.17
2018-01-18T00:25:44.692Z,70.07
2018-01-18T00:26:25.028Z,69.88
2018-01-18T00:27:05.426Z,70.36
2018-01-18T00:27:45.838Z,70.61
2018-01-18T00:28:26.218Z,70.51
2018-01-18T00:29:06.826Z,70.79
2018-01-18T00:29:47.070Z,71.18
2018-01-18T00:30:28.076Z,71.27
2018-01-18T00:31:07.951Z,71.27
2018-01-18T00:31:48.317Z,71.08
2018-01-18T00:32:28.724Z,71.75
2018-01-18T00:33:09.144Z,71.37
2018-01-18T00:33:49.465Z,71.56
2018-01-18T00:34:29.845Z,72.32
2018-01-18T00:35:10.341Z,71.94
2018-01-18T00:35:50.663Z,71.75
2018-01-18T00:36:31.130Z,72.03
2018-01-18T00:37:11.506Z,71.94
2018-01-18T00:37:52.080Z,72.51
2018-01-18T00:38:32.595Z,72.22
2018-01-18T00:39:12.966Z,72.51
2018-01-18T00:39:53.404Z,72.99
2018-01-18T00:40:33.940Z,72.32
2018-01-18T00:41:14.396Z,72.51
2018-01-18T00:41:54.818Z,72.41
2018-01-18T00:42:35.208Z,72.79
2018-01-18T00:43:15.699Z,72.6
2018-01-18T00:43:56.047Z,72.6
2018-01-18T00:44:36.457Z,72.51
2018-01-18T00:45:16.878Z,72.51
2018-01-18T00:45:57.497Z,72.99
2018-01-18T00:46:37.693Z,72.7
2018-01-18T00:47:18.249Z,72.79
2018-01-18T00:47:58.497Z,73.46
2018-01-18T00:48:39.032Z,73.27
2018-01-18T00:49:19.584Z,72.79
2018-01-18T00:49:59.805Z,73.55
2018-01-18T00:50:40.309Z,73.55
2018-01-18T00:51:20.768Z,73.46
2018-01-18T00:52:01.086Z,73.08
2018-01-18T00:52:41.541Z,73.08
2018-01-18T00:53:21.969Z,72.7
2018-01-18T00:54:02.468Z,72.89
2018-01-18T00:54:42.816Z,73.08
2018-01-18T00:55:23.277Z,72.79
2018-01-18T00:56:03.564Z,72.99
2018-01-18T00:56:43.959Z,72.89
2018-01-18T00:57:24.493Z,73.18
2018-01-18T00:58:05.624Z,73.93
2018-01-18T00:58:46.013Z,73.93
2018-01-18T00:59:26.509Z,74.03
2018-01-18T01:00:06.847Z,74.12
2018-01-18T01:00:47.314Z,74.22
2018-01-18T01:01:27.692Z,74.69
2018-01-18T01:02:08.059Z,74.51
2018-01-18T01:02:48.433Z,74.31
2018-01-18T01:03:28.858Z,74.22
2018-01-18T01:04:09.242Z,74.51
2018-01-18T01:04:49.961Z,74.51
2018-01-18T01:05:30.006Z,74.88
2018-01-18T01:06:10.637Z,74.69
2018-01-18T01:06:50.846Z,74.79
2018-01-18T01:07:31.280Z,74.41
2018-01-18T01:08:11.861Z,74.88
2018-01-18T01:08:52.191Z,74.98
2018-01-18T01:09:32.597Z,74.79
2018-01-18T01:10:13.373Z,75.45
2018-01-18T01:10:53.776Z,75.17
2018-01-18T01:11:34.184Z,75.36
2018-01-18T01:12:14.869Z,75.36
2018-01-18T01:12:55.247Z,75.36
2018-01-18T01:13:35.568Z,75.79
2018-01-18T01:14:16.079Z,76.4
2018-01-18T01:14:56.478Z,76.31
2018-01-18T01:15:36.905Z,75.13
2018-01-18T01:16:17.276Z,75.93
2018-01-18T01:16:57.891Z,75.84
2018-01-18T01:17:38.353Z,75.74
2018-01-18T01:18:18.684Z,75.6
2018-01-18T01:18:59.163Z,76.5
2018-01-18T01:19:39.519Z,76.12
2018-01-18T01:20:19.959Z,76.4
2018-01-18T01:21:00.336Z,75.93
2018-01-18T01:21:40.796Z,75.64
2018-01-18T01:22:21.130Z,75.45
2018-01-18T01:23:01.547Z,75.64
2018-01-18T01:23:41.976Z,75.93
2018-01-18T01:24:22.366Z,76.03
2018-01-18T01:25:02.726Z,76.5
2018-01-18T01:25:43.149Z,75.93
2018-01-18T01:26:23.610Z,75.84
2018-01-18T01:27:03.917Z,75.64
2018-01-18T01:27:44.534Z,75.36
2018-01-18T01:28:24.917Z,75.45
2018-01-18T01:29:05.380Z,75.45
2018-01-18T01:29:45.746Z,74.85
2018-01-18T01:30:26.193Z,75.23
2018-01-18T01:31:06.800Z,76.37
2018-01-18T01:31:47.202Z,76.93
2018-01-18T01:32:27.609Z,77.51
2018-01-18T01:33:08.042Z,77.22
2018-01-18T01:33:48.500Z,77.41
2018-01-18T01:34:28.877Z,77.79
2018-01-18T01:35:09.303Z,77.89
2018-01-18T01:35:49.633Z,78.08
2018-01-18T01:36:30.077Z,77.41
2018-01-18T01:37:10.464Z,77.79
2018-01-18T01:37:50.944Z,78.17
2018-01-18T01:38:31.268Z,78.55
2018-01-18T01:39:11.674Z,78.36
2018-01-18T01:39:52.008Z,78.27
2018-01-18T01:40:32.459Z,78.45
2018-01-18T01:41:12.937Z,77.79
2018-01-18T01:41:53.499Z,77.22
2018-01-18T01:42:33.887Z,77.22
2018-01-18T01:43:14.263Z,77.41
2018-01-18T01:43:54.670Z,77.22
2018-01-18T01:44:35.076Z,77.03
2018-01-18T01:45:15.453Z,77.12
2018-01-18T01:45:55.840Z,77.12
2018-01-18T01:46:36.409Z,76.84
2018-01-18T01:47:16.784Z,77.12
2018-01-18T01:47:57.216Z,76.46
2018-01-18T01:48:37.597Z,76.27
2018-01-18T01:49:17.936Z,76.18
2018-01-18T01:49:58.387Z,76.46
2018-01-18T01:50:38.845Z,77.12
2018-01-18T01:51:19.370Z,77.22
2018-01-18T01:51:59.766Z,77.22
2018-01-18T01:52:40.081Z,77.12
2018-01-18T01:53:20.542Z,77.41
2018-01-18T01:54:00.829Z,77.41
2018-01-18T01:54:41.235Z,76.93
2018-01-18T01:55:21.621Z,76.46
2018-01-18T01:56:02.153Z,76.56
2018-01-18T01:56:42.560Z,76.65
2018-01-18T01:57:23.532Z,77.12
2018-01-18T01:58:03.973Z,77.7
2018-01-18T01:58:44.370Z,77.84
2018-01-18T01:59:24.781Z,78.42
2018-01-18T02:00:05.232Z,78.8
2018-01-18T02:00:45.642Z,79.17
2018-01-18T02:01:25.979Z,78.89
2018-01-18T02:02:06.414Z,79.65
2018-01-18T02:02:47.507Z,78.89
2018-01-18T02:03:27.963Z,78.8
2018-01-18T02:04:08.326Z,78.7
2018-01-18T02:04:48.834Z,79.08
2018-01-18T02:05:29.135Z,79.94
2018-01-18T02:06:09.511Z,79.84
2018-01-18T02:06:49.822Z,79.22
2018-01-18T02:07:30.316Z,79.03
2018-01-18T02:08:10.681Z,79.03
2018-01-18T02:08:51.156Z,77.98
2018-01-18T02:09:31.609Z,77.79
2018-01-18T02:10:11.941Z,76.75
2018-01-18T02:10:52.454Z,77.03
2018-01-18T02:11:33.152Z,77.26
2018-01-18T02:12:13.398Z,76.69
2018-01-18T02:12:53.730Z,75.84
2018-01-18T02:13:34.179Z,75.89
2018-01-18T02:14:14.540Z,76.12
2018-01-18T02:14:55.261Z,76.4
2018-01-18T02:15:35.828Z,76.12
2018-01-18T02:16:16.080Z,75.64
2018-01-18T02:16:56.480Z,75.89
2018-01-18T02:17:37.017Z,76.5
2018-01-18T02:18:17.384Z,76.21
2018-01-18T02:18:57.949Z,75.93
2018-01-18T02:19:41.984Z,75.79
2018-01-18T02:20:22.343Z,76.03
2018-01-18T02:21:02.765Z,76.4
2018-01-18T02:21:43.148Z,75.74
2018-01-18T02:22:23.604Z,76.21
2018-01-18T02:23:04.037Z,76.12
2018-01-18T02:23:44.388Z,75.93
2018-01-18T02:24:24.917Z,75.36
2018-01-18T02:25:05.266Z,75.93
2018-01-18T02:25:45.755Z,75.93
2018-01-18T02:26:26.140Z,75.17
2018-01-18T02:27:06.546Z,75.26
2018-01-18T02:27:46.972Z,74.41
2018-01-18T02:28:27.382Z,74.98
2018-01-18T02:29:07.785Z,75.26
2018-01-18T02:29:48.694Z,74.88
2018-01-18T02:30:29.111Z,75.17
2018-01-18T02:31:09.470Z,75.84
2018-01-18T02:31:49.850Z,76.18
2018-01-18T02:32:30.302Z,76.75
2018-01-18T02:33:10.654Z,77.22
2018-01-18T02:33:51.040Z,77.41
2018-01-18T02:34:31.488Z,77.89
2018-01-18T02:35:11.868Z,78.51
2018-01-18T02:35:52.284Z,78.61
2018-01-18T02:36:32.702Z,78.8
2018-01-18T02:37:13.037Z,79.94
2018-01-18T02:37:53.435Z,80.03
2018-01-18T02:38:33.924Z,80.88
2018-01-18T02:39:14.228Z,81.07
2018-01-18T02:39:54.638Z,81.79
2018-01-18T02:40:35.005Z,82.12
2018-01-18T02:41:15.589Z,82.5
2018-01-18T02:41:55.961Z,82.88
2018-01-18T02:42:36.455Z,83.31
2018-01-18T02:43:16.889Z,82.93
2018-01-18T02:43:57.234Z,83.5
2018-01-18T02:44:37.677Z,83.59
2018-01-18T02:45:18.075Z,83.59
2018-01-18T02:45:58.417Z,83.78
2018-01-18T02:46:38.876Z,83.5
2018-01-18T02:47:19.280Z,83.78
2018-01-18T02:47:59.625Z,84.64
2018-01-18T02:48:40.080Z,84.17
2018-01-18T02:49:20.439Z,84.45
2018-01-18T02:50:00.837Z,84.36
2018-01-18T02:50:41.293Z,84.64
2018-01-18T02:51:21.674Z,84.83
2018-01-18T02:52:02.034Z,84.83
2018-01-18T02:52:42.406Z,85.02
2018-01-18T02:53:22.738Z,85.02
2018-01-18T02:54:03.199Z,85.3
2018-01-18T02:54:43.624Z,85.3
2018-01-18T02:55:24.054Z,85.21
2018-01-18T02:56:04.479Z,85.4
2018-01-18T02:56:44.864Z,85.02
2018-01-18T02:57:25.229Z,85.4
2018-01-18T02:58:05.683Z,85.78
2018-01-18T02:58:46.089Z,85.87
2018-01-18T02:59:26.455Z,85.97
2018-01-18T03:00:06.878Z,86.25
2018-01-18T03:00:47.252Z,85.97
2018-01-18T03:01:27.614Z,85.97
2018-01-18T03:02:08.012Z,86.44
2018-01-18T03:02:48.389Z,86.91
2018-01-18T03:03:28.810Z,86.82
2018-01-18T03:04:09.209Z,87.11
2018-01-18T03:04:49.614Z,87.39
2018-01-18T03:05:30.020Z,87.49
2018-01-18T03:06:10.402Z,87.01
2018-01-18T03:06:50.793Z,87.39
2018-01-18T03:07:31.238Z,86.91
2018-01-18T03:08:11.633Z,86.82
2018-01-18T03:08:52.015Z,87.2
2018-01-18T03:09:32.396Z,87.68
2018-01-18T03:10:12.790Z,87.63
2018-01-18T03:10:53.153Z,87.58
2018-01-18T03:11:33.566Z,87.68
2018-01-18T03:12:13.950Z,87.58
2018-01-18T03:12:54.385Z,87.49
2018-01-18T03:13:34.775Z,87.87
2018-01-18T03:14:15.166Z,87.77
2018-01-18T03:14:55.610Z,87.68
2018-01-18T03:15:35.961Z,87.45
2018-01-18T03:16:16.344Z,87.82
2018-01-18T03:16:56.800Z,88.06
2018-01-18T03:17:37.216Z,88.01
2018-01-18T03:18:17.611Z,88.15
2018-01-18T03:18:57.984Z,88.68
2018-01-18T03:19:38.418Z,87.77
2018-01-18T03:20:18.813Z,88.29
2018-01-18T03:20:59.277Z,88.43
2018-01-18T03:21:39.669Z,87.82
2018-01-18T03:22:20.019Z,87.63
2018-01-18T03:23:00.412Z,88.58
2018-01-18T03:23:40.805Z,88.29
2018-01-18T03:24:21.185Z,88.77
2018-01-18T03:25:01.610Z,88.48
2018-01-18T03:25:41.918Z,89.25
2018-01-18T03:26:22.331Z,88.39
2018-01-18T03:27:02.731Z,88.1
2018-01-18T03:27:43.173Z,88.58
2018-01-18T03:28:23.556Z,89.06
2018-01-18T03:29:03.985Z,88.96
2018-01-18T03:29:44.377Z,89.43
2018-01-18T03:30:24.715Z,89.15
2018-01-18T03:31:05.170Z,89.43
2018-01-18T03:31:45.550Z,89.62
2018-01-18T03:32:25.958Z,89.15
2018-01-18T03:33:06.342Z,88.96
2018-01-18T03:33:46.701Z,89.06
2018-01-18T03:34:27.073Z,88.77
2018-01-18T03:35:07.587Z,88.77
2018-01-18T03:35:47.926Z,88.87
2018-01-18T03:36:28.414Z,89.25
2018-01-18T03:37:08.899Z,88.87
2018-01-18T03:37:49.262Z,88.29
2018-01-18T03:38:29.739Z,88.1
2018-01-18T03:39:10.136Z,88.58
2018-01-18T03:39:50.515Z,88.96
2018-01-18T03:40:30.870Z,89.25
2018-01-18T03:41:11.313Z,89.53
2018-01-18T03:41:51.738Z,88.96
2018-01-18T03:42:32.160Z,89.62
2018-01-18T03:43:12.556Z,89.15
2018-01-18T03:43:52.949Z,89.15
2018-01-18T03:44:33.301Z,89.72
2018-01-18T03:45:13.652Z,90
2018-01-18T03:45:54.092Z,89.72
2018-01-18T03:46:34.595Z,89.06
2018-01-18T03:47:14.930Z,89.34
2018-01-18T03:47:55.284Z,89.91
2018-01-18T03:48:35.674Z,89.15
2018-01-18T03:49:16.087Z,89.15
2018-01-18T03:49:56.457Z,89.43
2018-01-18T03:50:36.845Z,88.96
2018-01-18T03:51:17.316Z,89.06
2018-01-18T03:51:57.633Z,89.91
2018-01-18T03:52:38.023Z,89.81
2018-01-18T03:53:18.480Z,89.81
2018-01-18T03:53:58.884Z,89.81
2018-01-18T03:54:39.292Z,90.19
2018-01-18T03:55:19.735Z,90.67
2018-01-18T03:56:00.095Z,90.48
2018-01-18T03:56:40.496Z,90.38
2018-01-18T03:57:20.916Z,90.67
2018-01-18T03:58:01.301Z,90.29
2018-01-18T03:58:41.713Z,90.48
2018-01-18T03:59:22.080Z,90.67
2018-01-18T04:00:03.045Z,90.95
2018-01-18T04:00:43.489Z,90.57
2018-01-18T04:01:23.866Z,90.48
2018-01-18T04:02:04.270Z,91.05
2018-01-18T04:43:54.193Z,95.45
2018-01-18T04:44:35.273Z,95.07
2018-01-18T04:45:17.076Z,95.36
2018-01-18T04:45:58.030Z,94.7
2018-01-18T04:46:38.264Z,94.23
2018-01-18T04:47:18.967Z,94.51
2018-01-18T04:47:59.421Z,95.26
2018-01-18T04:48:41.019Z,94.56
2018-01-18T04:49:20.769Z,94.37
2018-01-18T04:50:01.338Z,94.27
2018-01-18T04:50:44.295Z,94.46
2018-01-18T04:51:28.184Z,94.08
2018-01-18T04:52:08.950Z,93.99
2018-01-18T04:52:55.307Z,94.27
2018-01-18T04:53:35.895Z,93.89
2018-01-18T04:54:16.230Z,93.8
2018-01-18T04:54:57.410Z,93.7
2018-01-18T04:55:37.801Z,93.7
2018-01-18T04:56:19.907Z,93.8
2018-01-18T04:57:00.294Z,92.76
2018-01-18T04:57:41.188Z,91.8
2018-01-18T04:58:21.538Z,91.47
2018-01-18T04:59:02.915Z,90.62
2018-01-18T04:59:43.361Z,90.62
2018-01-18T05:00:23.933Z,90.81
2018-01-18T05:01:04.924Z,89.53
2018-01-18T05:01:46.192Z,88.76
2018-01-18T05:02:26.960Z,87.15
2018-01-18T05:03:07.448Z,87.34
2018-01-18T05:03:48.404Z,87.72
2018-01-18T05:04:28.786Z,87.05
2018-01-18T05:05:09.180Z,86.91
2018-01-18T05:05:51.512Z,86.05
2018-01-18T05:06:31.761Z,84.63
2018-01-18T05:08:57.295Z,85.01
2018-01-18T05:09:49.989Z,84.44
2018-01-18T05:12:39.865Z,83.49
2018-01-18T05:13:20.774Z,83.59
2018-01-18T05:16:57.862Z,83.39
2018-01-18T05:17:38.205Z,82.73
2018-01-18T05:18:18.672Z,84.16
2018-01-18T05:18:59.362Z,84.34
2018-01-18T05:19:42.010Z,83.3
2018-01-18T05:20:23.879Z,83.68
2018-01-18T05:21:04.208Z,84.1
2018-01-18T05:21:44.753Z,83.53
2018-01-18T05:22:25.175Z,82.39
2018-01-18T05:23:05.762Z,82.26
2018-01-18T05:23:46.307Z,82.87
2018-01-18T05:24:28.446Z,82.96
2018-01-18T05:25:10.240Z,83.44
2018-01-18T05:25:50.827Z,82.39
2018-01-18T05:26:31.189Z,82.26
2018-01-18T05:27:12.785Z,82.2
2018-01-18T05:27:53.207Z,82.68
2018-01-18T05:28:34.590Z,82.29
2018-01-18T05:29:15.934Z,82.49
2018-01-18T05:29:56.250Z,81.82
2018-01-18T05:30:36.610Z,82.29
2018-01-18T05:31:16.997Z,81.92
2018-01-18T05:31:57.532Z,82.01
2018-01-18T05:32:38.028Z,80.96
2018-01-18T05:33:18.738Z,80.4
2018-01-18T05:33:59.649Z,80.72
2018-01-18T05:34:40.150Z,80.11
2018-01-18T05:35:20.964Z,79.96
2018-01-18T05:36:01.288Z,79.92
2018-01-18T05:36:41.728Z,80.02
2018-01-18T05:37:24.050Z,79.83
2018-01-18T05:38:04.911Z,80.21
2018-01-18T05:38:45.353Z,80.02
2018-01-18T05:39:26.013Z,80.4
2018-01-18T05:40:06.334Z,81.01
2018-01-18T05:40:46.735Z,81.01
2018-01-18T05:41:27.228Z,79.39
2018-01-18T05:42:07.694Z,79.35
2018-01-18T05:42:48.084Z,80.11
2018-01-18T05:43:28.651Z,79.92
2018-01-18T05:44:09.000Z,81.06
2018-01-18T05:44:50.188Z,80.3
2018-01-18T05:45:31.548Z,79.86
2018-01-18T05:46:11.962Z,80.91
2018-01-18T05:46:53.068Z,80.82
2018-01-18T05:47:33.508Z,79.96
2018-01-18T05:48:14.659Z,80.15
2018-01-18T05:48:55.092Z,80.24
2018-01-18T05:49:35.667Z,80.34
2018-01-18T05:50:16.035Z,79.39
2018-01-18T05:50:56.711Z,80.24
2018-01-18T05:51:37.121Z,80.24
2018-01-18T05:52:17.380Z,80.05
2018-01-18T05:52:57.840Z,80.21
2018-01-18T05:53:39.308Z,80.87
2018-01-18T05:54:20.509Z,81.25
2018-01-18T05:55:01.674Z,81.73
2018-01-18T05:55:43.193Z,81.63
2018-01-18T05:56:23.349Z,82.39
2018-01-18T05:57:03.858Z,81.92
2018-01-18T05:57:44.223Z,81.25
2018-01-18T05:58:24.779Z,81.86
2018-01-18T05:59:05.204Z,81.58
2018-01-18T05:59:45.619Z,81.58
2018-01-18T06:00:26.380Z,81.1
2018-01-18T06:03:31.794Z,80.91
2018-01-18T06:04:12.424Z,80.82
2018-01-18T06:04:53.028Z,80.66
2018-01-18T06:05:33.223Z,79.91
2018-01-18T06:06:13.668Z,79.52
2018-01-18T06:06:54.039Z,79.52
2018-01-18T06:07:34.623Z,78.96
2018-01-18T06:08:15.471Z,79.33
2018-01-18T06:08:55.860Z,79.43
2018-01-18T06:09:37.124Z,79.14
2018-01-18T06:10:17.685Z,78.96
2018-01-18T06:10:59.040Z,79.72
2018-01-18T06:11:42.653Z,79.62
2018-01-18T06:12:24.286Z,79.91
2018-01-18T06:13:05.482Z,80.1
2018-01-18T06:13:47.921Z,80.1
2018-01-18T06:14:31.621Z,80.57
2018-01-18T06:15:12.381Z,80.29
2018-01-18T06:15:55.062Z,80.29
2018-01-18T06:16:42.694Z,80.19
2018-01-18T06:17:30.204Z,80.29
2018-01-18T06:18:12.817Z,81.05
2018-01-18T06:18:55.928Z,80.95
2018-01-18T06:19:40.466Z,80.47
2018-01-18T06:20:23.043Z,81.05
2018-01-18T06:21:04.689Z,80.95
2018-01-18T06:21:47.054Z,81.05
2018-01-18T06:22:27.830Z,80.86
2018-01-18T06:23:11.664Z,81.14
2018-01-18T06:23:54.012Z,81.05
2018-01-18T06:24:37.581Z,80.86
2018-01-18T06:25:22.638Z,81.05
2018-01-18T06:26:05.803Z,80.86
2018-01-18T06:26:51.146Z,81.52
2018-01-18T06:27:32.636Z,80.95
2018-01-18T06:28:14.586Z,80.57
2018-01-18T06:28:55.956Z,80.95
2018-01-18T06:29:37.887Z,80.66
2018-01-18T06:30:21.322Z,80.1
2018-01-18T06:31:06.581Z,80.71
2018-01-18T06:31:49.082Z,80.71
2018-01-18T06:32:32.057Z,79.91
2018-01-18T06:33:13.491Z,80.95
2018-01-18T06:33:58.344Z,80.42
2018-01-18T06:34:46.487Z,80.42
2018-01-18T06:35:26.611Z,80.13
2018-01-18T06:36:09.125Z,80.04
2018-01-18T06:36:51.945Z,80.33
2018-01-18T06:39:09.803Z,79.57
2018-01-18T06:39:53.387Z,79.47
2018-01-18T06:40:34.105Z,79.09
2018-01-18T06:41:14.553Z,79.19
2018-01-18T06:41:55.270Z,78.99
2018-01-18T06:42:35.707Z,78.99
2018-01-18T06:43:16.362Z,78.99
2018-01-18T06:43:57.515Z,78.99
2018-01-18T06:44:37.976Z,79.19
2018-01-18T06:45:18.677Z,79.19
2018-01-18T06:46:00.230Z,78.75
2018-01-18T06:46:41.261Z,78.71
2018-01-18T06:47:21.392Z,79.13
2018-01-18T06:48:01.768Z,79.13
2018-01-18T06:48:43.087Z,79.28
2018-01-18T06:49:25.309Z,79.13
2018-01-18T06:50:06.590Z,78.94
2018-01-18T06:50:46.625Z,79.22
2018-01-18T06:51:27.972Z,78.85
2018-01-18T06:52:08.778Z,78.46
2018-01-18T06:52:50.151Z,78.56
2018-01-18T06:53:30.827Z,79.03
2018-01-18T06:54:11.697Z,79.03
2018-01-18T06:54:52.284Z,78.75
2018-01-18T06:55:33.552Z,78.65
2018-01-18T06:56:16.087Z,78.56
2018-01-18T06:56:56.286Z,78.65
2018-01-18T06:57:37.831Z,78.46
2018-01-18T06:58:18.266Z,78.75
2018-01-18T06:59:03.486Z,78.56
2018-01-18T06:59:44.057Z,77.98
2018-01-18T07:00:24.585Z,77.93
2018-01-18T07:01:05.854Z,78.12
2018-01-18T07:01:46.279Z,77.74
2018-01-18T07:02:26.958Z,77.36
2018-01-18T07:03:07.674Z,77.45
2018-01-18T07:03:48.073Z,77.17
2018-01-18T07:04:28.770Z,78.03
2018-01-18T07:05:08.984Z,78.03
2018-01-18T07:05:49.651Z,78.25
2018-01-18T07:06:30.049Z,78.12
2018-01-18T07:07:10.768Z,78.69
2018-01-18T07:07:51.641Z,78.25
2018-01-18T07:08:32.847Z,78.12
2018-01-18T07:09:13.497Z,78.31
2018-01-18T07:09:54.137Z,78.73
2018-01-18T07:10:34.593Z,78.64
2018-01-18T07:11:14.962Z,78.69
2018-01-18T07:11:55.542Z,78.83
2018-01-18T07:12:36.699Z,78.25
2018-01-18T07:13:18.339Z,77.78
2018-01-18T07:13:59.336Z,78.16
2018-01-18T07:14:39.885Z,77.69
2018-01-18T07:15:20.996Z,77.01
2018-01-18T07:16:01.263Z,77.59
2018-01-18T07:16:41.913Z,77.49
2018-01-18T07:17:22.677Z,77.49
2018-01-18T07:18:04.145Z,77.2
2018-01-18T07:18:44.135Z,77.49
2018-01-18T07:19:24.744Z,77.49
2018-01-18T07:20:05.754Z,77.59
2018-01-18T07:20:46.376Z,77.97
2018-01-18T07:21:26.753Z,78.69
2018-01-18T07:22:07.661Z,78.83
2018-01-18T07:22:48.184Z,78.83
2018-01-18T07:23:29.022Z,78.83
2018-01-18T07:24:09.614Z,78.64
2018-01-18T07:24:50.743Z,78.69
2018-01-18T07:25:31.158Z,78.64
2018-01-18T07:26:11.640Z,79.3
2018-01-18T07:26:52.370Z,80.26
2018-01-18T07:27:33.323Z,80.12
2018-01-18T07:28:13.957Z,80.12
2018-01-18T07:28:56.092Z,80.88
2018-01-18T07:29:36.666Z,80.6
2018-01-18T07:30:17.537Z,80.98
2018-01-18T07:30:58.958Z,80.69
2018-01-18T07:31:40.152Z,81.07
2018-01-18T07:32:20.899Z,80.98
2018-01-18T07:33:02.305Z,81.17
2018-01-18T07:33:42.541Z,80.98
2018-01-18T07:34:24.088Z,81.17
2018-01-18T07:35:04.918Z,81.07
2018-01-18T07:35:46.277Z,80.22
2018-01-18T07:36:26.896Z,80.69
2018-01-18T07:37:08.195Z,80.98
2018-01-18T07:37:49.056Z,80.26
2018-01-18T07:38:29.548Z,79.97
2018-01-18T07:39:11.318Z,80.16
2018-01-18T07:39:52.866Z,80.35
2018-01-18T07:40:33.961Z,79.78
2018-01-18T07:41:14.534Z,80.26
2018-01-18T07:41:55.473Z,80.16
2018-01-18T07:42:35.881Z,80.26
2018-01-18T07:44:37.736Z,80.35
2018-01-18T07:47:11.906Z,80.16
2018-01-18T07:47:52.714Z,79.78
2018-01-18T07:48:33.614Z,79.59
2018-01-18T07:49:16.494Z,79.3
2018-01-18T07:50:06.508Z,79.68
2018-01-18T07:50:47.591Z,79.68
2018-01-18T07:51:30.755Z,79.49
2018-01-18T07:52:12.634Z,79.97
2018-01-18T07:52:54.853Z,79.68
2018-01-18T07:53:38.615Z,79.02
2018-01-18T07:54:20.498Z,79.11
2018-01-18T07:55:02.143Z,79.78
2018-01-18T07:55:44.454Z,79.3
2018-01-18T07:56:26.649Z,79.3
2018-01-18T07:57:10.061Z,79.3
2018-01-18T09:41:47.306Z,59.81
2018-01-18T09:42:30.714Z,59.44
2018-01-18T09:43:11.113Z,59.53
2018-01-18T09:43:51.889Z,58.95
2018-01-18T09:44:32.891Z,58.48
2018-01-18T09:45:13.828Z,58.58
2018-01-18T09:45:54.664Z,59.24
2018-01-18T09:46:35.971Z,58.48
2018-01-18T09:47:16.597Z,57.9
2018-01-18T09:47:57.790Z,57.62
2018-01-18T09:48:38.240Z,57.78
2018-01-18T09:49:19.097Z,56.45
2018-01-18T09:50:00.489Z,56.35
2018-01-18T09:50:41.959Z,55.58
2018-01-18T09:51:22.297Z,56.16
2018-01-18T09:52:03.408Z,55.49
2018-01-18T09:52:44.376Z,56.54
2018-01-18T09:53:24.974Z,56.92
2018-01-18T09:54:05.811Z,57.78
2018-01-18T09:54:46.718Z,57.87
2018-01-18T09:55:27.219Z,58.36
2018-01-18T09:56:07.865Z,57.4
2018-01-18T09:56:48.432Z,57.31
2018-01-18T09:57:28.889Z,56.41
2018-01-18T09:58:09.597Z,56.51
2018-01-18T09:58:50.076Z,56.41
2018-01-18T09:59:30.942Z,55.94
2018-01-18T10:00:11.806Z,56.13
2018-01-18T10:00:52.219Z,56.41
2018-01-18T10:01:32.752Z,56.23
2018-01-18T10:02:13.421Z,56.32
2018-01-18T10:02:54.006Z,56.51
2018-01-18T10:03:34.759Z,56.8
2018-01-18T10:04:15.460Z,56.8
2018-01-18T10:44:55.449Z,51.71
2018-01-18T10:45:52.980Z,51.14
2018-01-18T10:49:30.165Z,49.85
2018-01-18T10:50:11.914Z,48.99
2018-01-18T10:50:52.662Z,48.52
2018-01-18T10:51:33.484Z,48.71
2018-01-18T10:52:14.036Z,48.04
2018-01-18T10:52:54.495Z,47.97
2018-01-18T10:53:35.426Z,48.64
2018-01-18T10:54:16.773Z,47.97
2018-01-18T10:54:57.162Z,47.39
2018-01-18T10:55:37.943Z,47.68
2018-01-18T10:56:19.016Z,46.53
2018-01-18T10:57:00.032Z,46.72
2018-01-18T10:57:40.976Z,46.92
2018-01-18T10:58:22.033Z,47.85
2018-01-18T10:59:03.048Z,47.94
2018-01-18T10:59:43.907Z,48.04
2018-01-18T11:00:24.849Z,48.61
2018-01-18T11:01:05.909Z,49.09
2018-01-18T11:01:46.691Z,48.99
2018-01-18T11:02:27.500Z,49.09
2018-01-18T11:03:08.165Z,49.64
2018-01-18T11:03:48.822Z,50.59
2018-01-18T11:04:29.241Z,50.4
2018-01-18T11:05:09.853Z,50.78
2018-01-18T11:05:50.221Z,50.49
2018-01-18T11:06:31.011Z,51.62
2018-01-18T11:07:11.636Z,51.54
2018-01-18T11:07:52.265Z,51.04
2018-01-18T11:08:32.859Z,51.14
2018-01-18T11:09:13.373Z,50.95
2018-01-18T11:09:53.937Z,51.71
2018-01-18T11:10:34.929Z,51.81
2018-01-18T11:11:15.334Z,52.09
2018-01-18T11:11:56.339Z,52.64
2018-01-18T11:12:36.715Z,53.02
2018-01-18T11:13:17.498Z,53.31
2018-01-18T11:13:58.302Z,53.12
2018-01-18T11:14:39.134Z,54.17
2018-01-18T11:15:19.989Z,54.07
2018-01-18T11:16:00.342Z,54.64
2018-01-18T11:16:40.812Z,54.17
2018-01-18T11:17:21.500Z,54.55
2018-01-18T11:18:01.839Z,54.36
2018-01-18T11:18:42.744Z,54.26
2018-01-18T11:19:23.360Z,55.02
2018-01-18T11:20:03.845Z,55.31
2018-01-18T11:20:44.408Z,55.5
2018-01-18T11:21:24.941Z,55.5
2018-01-18T11:22:05.646Z,55.66
2018-01-18T11:22:46.261Z,56.26
2018-01-18T11:23:27.871Z,56.14
2018-01-18T11:24:09.168Z,56.17
2018-01-18T11:34:11.074Z,55.15
2018-01-18T11:35:14.544Z,55.41
2018-01-18T11:36:13.198Z,55.5
2018-01-18T11:39:09.902Z,54.29
2018-01-18T11:40:07.653Z,53.14
2018-01-18T11:41:01.374Z,53.21
2018-01-18T11:41:55.186Z,53.62
2018-01-18T11:42:52.903Z,53.14
2018-01-18T11:43:54.972Z,52.28
2018-01-18T11:44:49.480Z,51.71
2018-01-18T11:45:49.369Z,51.14
2018-01-18T11:46:54.800Z,50.49
2018-01-18T11:47:54.907Z,50.98
2018-01-18T11:48:50.200Z,50.49
2018-01-18T11:49:58.647Z,49.66
2018-01-18T11:50:59.483Z,48.8
2018-01-18T11:51:53.484Z,47.27
2018-01-18T11:52:46.035Z,46.51
2018-01-18T11:53:41.503Z,46.7
2018-01-18T11:54:44.343Z,47.18
2018-01-18T11:55:43.237Z,47.37
2018-01-18T11:56:38.118Z,47.47
2018-01-18T11:57:33.917Z,47.58
2018-01-18T11:58:31.224Z,46.25
2018-01-18T11:59:30.230Z,46.44
2018-01-18T12:02:02.946Z,45.48
2018-01-18T12:02:58.271Z,45.51
2018-01-18T12:03:59.237Z,44.81
2018-01-18T12:04:54.218Z,45.87
2018-01-18T12:05:52.832Z,46.44
2018-01-18T12:06:47.761Z,45.58
2018-01-18T12:07:43.447Z,45.77
2018-01-18T12:08:39.441Z,45.58
2018-01-18T12:09:35.391Z,45.46
2018-01-18T12:10:29.880Z,46.51
2018-01-18T12:12:39.419Z,46.03
2018-01-18T12:13:35.839Z,46.42
2018-01-18T12:14:34.718Z,46.42
2018-01-18T12:15:31.052Z,46.13
2018-01-18T12:16:30.265Z,46.22
2018-01-18T12:17:24.777Z,46.34
2018-01-18T12:18:20.669Z,45.46
2018-01-18T12:19:16.764Z,46.03
2018-01-18T12:20:10.228Z,46.32
2018-01-18T12:21:03.574Z,47.18
2018-01-18T12:22:01.592Z,47.66
2018-01-18T12:23:00.039Z,48.04
2018-01-18T12:23:54.338Z,46.99
2018-01-18T12:24:51.759Z,47.56
2018-01-18T12:25:50.846Z,48.21
2018-01-18T12:26:45.711Z,48.71
2018-01-18T12:27:54.869Z,48.33
2018-01-18T12:29:06.848Z,48.33
2018-01-18T12:30:06.604Z,47.27
2018-01-18T12:31:04.960Z,46.99
2018-01-18T12:32:57.736Z,46.92
2018-01-18T12:33:38.939Z,47.58
2018-01-18T12:34:21.306Z,47.39
2018-01-18T12:35:01.529Z,47.3
2018-01-18T12:35:51.794Z,47.49
2018-01-18T12:36:33.729Z,47.49
2018-01-18T12:37:13.877Z,46.75
2018-01-18T12:37:54.574Z,47.39
2018-01-18T12:38:35.227Z,46.66
2018-01-18T12:39:16.262Z,46.53
2018-01-18T12:39:59.834Z,46.15